Portada
METAR-TAF:

METAR-TAF

Aeroports :

Orlhac, França

latitud: 44-53N, longitud: 002-25E, altitud: 639 m

Observació

L'informe es va fer fa 1 hora i 18 minuts, a les 19:30 UTC
Vent 3 kt del Oest/Sud-Oest
Temperatura 8°C
Humitat 66%
Pressió 1016 hPa
Visibilitat 10 km o més
sense núvols per sota de 1500 mi sense presència de cumulonimbus.

METAR: LFLW 051930Z AUTO 24003KT CAVOK 08/02 Q1016

Hora: 22:48 (20:48 UTC)

Pronòstic

L'informe es va fer fa 6 hores i 48 minuts, a les 14:00 UTC
Pronòstic vàlid del 05 a les 15 UTC al 05 a les 24 UTC
Vent 10 kt del Oest
Visibilitat 10 km o més
Núvols disperses a una alçada de 4500 ft
Evolucionant progressivament
l' 05 a les 18 UTC al 05 a les 21 UTC
Vent 3 kt amb direcció variable

TAF: LFLW 051400Z 0515/0524 28010KT 9999 SCT045 BECMG 0518/0521 VRB03KT

Observacions i pronòstics meteorològics de més de 4000 aeroports (METAR i TAF).

Les estacions disponibles són els punts grocs i vermells al mapa.

Posi el ratolí al punt desitjat per veure el nom de l'estació.

Feu clic per veure les observacions i els pronòstics meteorològics.

Per canviar el mapa: feu clic els botons verds amb una creu de color negre per apropar; al botó verd amb un guió per allunyar la imatge; o en les fletxes verdes per a mapes adjacents.


METAR-TAF: